Time;durP1;ratioP1;P1;durP2;ratioP2;P2;SDS_P1;SDS_P2;PMS_P1;PMS_P2;Temp;Humidity;BMP_temperature;BMP_pressure;BME280_temperature;BME280_humidity;BME280_pressure;Samples;Min_cycle;Max_cycle;Signal;HPM_P1;HPM_P2
2023/05/31 00:01:21;;;;;;;5.32;3.08;;;;;;;-142.75;100.00;77875.59;5047805;28;20023;-66
2023/05/31 00:03:46;;;;;;;6.18;2.75;;;;;;;-142.75;100.00;77881.50;5047868;28;20602;-66
2023/05/31 00:06:12;;;;;;;7.30;3.38;;;;;;;-142.75;100.00;77871.66;5047332;28;20032;-66
2023/05/31 00:08:39;;;;;;;7.05;3.13;;;;;;;-142.75;100.00;77885.44;5047801;28;20025;-65
2023/05/31 00:11:06;;;;;;;5.90;2.58;;;;;;;-142.75;100.00;77907.09;5062750;28;20025;-66
2023/05/31 00:13:31;;;;;;;5.70;2.85;;;;;;;-142.75;100.00;77901.19;5047530;28;20021;-66
2023/05/31 00:15:56;;;;;;;11.20;3.53;;;;;;;-142.75;100.00;77909.06;5047404;28;20563;-65
2023/05/31 00:18:22;;;;;;;6.28;3.80;;;;;;;-142.75;100.00;77901.19;5047715;28;20021;-66
2023/05/31 00:20:47;;;;;;;6.63;2.80;;;;;;;-142.75;100.00;77899.22;5047208;28;20124;-67
2023/05/31 00:23:12;;;;;;;5.97;2.67;;;;;;;-142.75;100.00;77913.03;5047263;28;20025;-65
2023/05/31 00:25:38;;;;;;;6.63;2.92;;;;;;;-142.75;100.00;77901.19;5046577;28;20021;-66
2023/05/31 00:28:03;;;;;;;10.23;3.13;;;;;;;-142.75;100.00;77901.19;5047942;28;20071;-66
2023/05/31 00:30:29;;;;;;;8.20;3.20;;;;;;;-142.75;100.00;77922.88;5046878;28;20036;-65
2023/05/31 00:32:54;;;;;;;6.78;3.58;;;;;;;-142.75;100.00;77905.13;5047614;28;20036;-66
2023/05/31 00:35:20;;;;;;;8.70;3.03;;;;;;;-142.75;100.00;77924.84;5047475;28;20024;-66
2023/05/31 00:37:45;;;;;;;5.63;2.92;;;;;;;-142.75;100.00;77922.88;5034515;28;20049;-65
2023/05/31 00:40:11;;;;;;;5.70;3.20;;;;;;;-142.75;100.00;77934.69;5026969;28;20100;-65
2023/05/31 00:42:36;;;;;;;6.00;2.92;;;;;;;-142.75;100.00;77926.81;5027282;28;20045;-65
2023/05/31 00:45:02;;;;;;;5.78;3.25;;;;;;;-142.75;100.00;77928.78;5026964;28;20025;-65
2023/05/31 00:47:28;;;;;;;4.65;2.97;;;;;;;-142.75;100.00;77905.13;5027195;28;20482;-66
2023/05/31 00:49:55;;;;;;;7.45;3.42;;;;;;;-142.75;100.00;77920.91;5026626;28;20025;-66
2023/05/31 00:52:21;;;;;;;6.18;3.30;;;;;;;-142.75;100.00;77918.94;5027271;28;20025;-65
2023/05/31 00:54:46;;;;;;;6.68;3.22;;;;;;;-142.75;100.00;77913.03;5026942;28;20021;-66
2023/05/31 00:57:12;;;;;;;7.18;2.97;;;;;;;-142.75;100.00;77928.78;5027122;28;20063;-66
2023/05/31 00:59:37;;;;;;;6.50;2.92;;;;;;;-142.75;100.00;77918.94;5027022;28;20017;-65
2023/05/31 01:02:03;;;;;;;6.53;3.50;;;;;;;-142.75;100.00;77905.13;5026735;28;20026;-66
2023/05/31 01:04:30;;;;;;;5.50;3.20;;;;;;;-142.75;100.00;77905.13;5026996;28;20464;-65
2023/05/31 01:06:56;;;;;;;5.93;3.22;;;;;;;-142.75;100.00;77928.78;5026714;28;20022;-65
2023/05/31 01:09:22;;;;;;;7.93;3.05;;;;;;;-142.75;100.00;77938.63;5026931;28;20022;-65
2023/05/31 01:12:25;;;;;;;7.97;3.35;;;;;;;-142.75;100.00;77911.06;5026304;28;20060;-65
2023/05/31 01:15:17;;;;;;;7.13;3.40;;;;;;;-142.75;100.00;77920.91;5032144;28;20132;-66
2023/05/31 01:18:00;;;;;;;8.13;3.38;;;;;;;-142.75;100.00;77928.78;5061755;28;20100;-66
2023/05/31 01:20:32;;;;;;;8.75;3.13;;;;;;;-142.75;100.00;77926.81;5046178;28;20382;-65
2023/05/31 01:23:04;;;;;;;6.40;3.00;;;;;;;-142.75;100.00;77944.53;5046403;28;20135;-65
2023/05/31 01:25:57;;;;;;;8.68;3.92;;;;;;;-142.75;100.00;77938.63;5046155;28;20024;-66
2023/05/31 01:28:25;;;;;;;7.10;3.47;;;;;;;-142.75;100.00;77948.47;5046994;28;20020;-65
2023/05/31 01:30:53;;;;;;;6.18;3.55;;;;;;;-142.75;100.00;77936.66;5045827;28;20028;-65
2023/05/31 01:33:20;;;;;;;7.68;3.00;;;;;;;-142.75;100.00;77940.59;5046133;28;20029;-66
2023/05/31 01:35:45;;;;;;;7.28;3.65;;;;;;;-142.75;100.00;77952.41;5045864;28;20180;-65
2023/05/31 01:38:10;;;;;;;7.38;3.80;;;;;;;-142.75;100.00;77928.78;5046118;28;20047;-66
2023/05/31 01:40:37;;;;;;;10.13;3.95;;;;;;;-142.75;100.00;77940.59;5045678;28;20021;-66
2023/05/31 01:43:04;;;;;;;8.35;3.97;;;;;;;-142.75;100.00;77938.63;5045837;28;20082;-66
2023/05/31 01:45:30;;;;;;;7.05;3.83;;;;;;;-142.75;100.00;77948.47;5045655;28;20664;-65
2023/05/31 01:48:01;;;;;;;7.22;3.60;;;;;;;-142.75;100.00;77934.69;5045877;28;20086;-66
2023/05/31 01:50:27;;;;;;;6.38;3.40;;;;;;;-142.75;100.00;77958.31;5045575;28;20025;-65
2023/05/31 01:52:52;;;;;;;6.53;3.45;;;;;;;-142.75;100.00;77958.31;5045814;28;20025;-66
2023/05/31 01:55:17;;;;;;;8.13;3.90;;;;;;;-142.75;100.00;77958.31;5045599;28;20548;-65
2023/05/31 01:57:44;;;;;;;6.60;3.67;;;;;;;-142.75;100.00;77960.28;5046225;28;20120;-66
2023/05/31 02:00:12;;;;;;;7.40;4.32;;;;;;;-142.75;100.00;77958.31;5045204;28;20021;-66
2023/05/31 02:02:41;;;;;;;6.38;3.80;;;;;;;-142.75;100.00;77958.31;5045441;28;20456;-66
2023/05/31 02:05:08;;;;;;;8.63;3.80;;;;;;;-142.75;100.00;77960.28;5045316;28;20433;-65
2023/05/31 02:07:44;;;;;;;7.05;3.55;;;;;;;-142.75;100.00;77960.28;5045511;28;20079;-67
2023/05/31 02:10:10;;;;;;;9.50;3.50;;;;;;;-142.75;100.00;77960.28;5045354;28;20074;-66
2023/05/31 02:12:36;;;;;;;9.35;3.42;;;;;;;-142.75;100.00;77960.28;5045593;28;20433;-67
2023/05/31 02:15:03;;;;;;;7.43;3.83;;;;;;;-142.75;100.00;77956.34;5045182;28;20029;-65
2023/05/31 02:17:32;;;;;;;7.57;4.50;;;;;;;-142.75;100.00;77954.38;5045040;28;20028;-65
2023/05/31 02:19:58;;;;;;;7.90;3.90;;;;;;;-142.75;100.00;77962.25;5044888;28;20119;-65
2023/05/31 02:22:23;;;;;;;8.77;4.10;;;;;;;-142.75;100.00;77970.13;5045449;28;20131;-66
2023/05/31 02:24:49;;;;;;;10.70;4.15;;;;;;;-142.75;100.00;77968.16;5045279;28;20036;-66
2023/05/31 02:27:15;;;;;;;8.23;3.83;;;;;;;-142.75;100.00;77968.16;5045219;28;20040;-65
2023/05/31 02:29:40;;;;;;;7.05;3.78;;;;;;;-142.75;100.00;77964.22;5060620;28;20029;-65
2023/05/31 02:32:06;;;;;;;9.35;3.88;;;;;;;-142.75;100.00;77966.19;5045105;28;20035;-66
2023/05/31 02:34:31;;;;;;;7.60;3.55;;;;;;;-142.75;100.00;77960.28;5045178;28;20056;-66
2023/05/31 02:36:57;;;;;;;11.27;3.83;;;;;;;-142.75;100.00;77976.03;5044625;28;20116;-64
2023/05/31 02:39:24;;;;;;;9.77;4.38;;;;;;;-142.75;100.00;77968.16;5060640;28;20033;-66
2023/05/31 02:41:50;;;;;;;7.95;4.40;;;;;;;-142.75;100.00;77993.75;5044566;28;20506;-66
2023/05/31 02:44:15;;;;;;;7.93;3.83;;;;;;;-142.75;100.00;77991.78;5044933;28;20024;-66
2023/05/31 02:46:40;;;;;;;8.40;4.38;;;;;;;-142.75;100.00;77983.91;5027365;28;20072;-66
2023/05/31 02:49:09;;;;;;;10.52;4.53;;;;;;;-142.75;100.00;77976.03;5024531;28;20080;-65
2023/05/31 02:51:34;;;;;;;7.03;3.92;;;;;;;-142.75;100.00;77981.94;5024696;28;20441;-66
2023/05/31 02:54:00;;;;;;;7.45;3.88;;;;;;;-142.75;100.00;77979.97;5023710;28;20029;-67
2023/05/31 02:56:26;;;;;;;8.63;4.25;;;;;;;-142.75;100.00;77983.91;5025193;28;20029;-66
2023/05/31 02:58:51;;;;;;;7.60;3.85;;;;;;;-142.75;100.00;77976.03;5025592;28;20079;-65
2023/05/31 03:01:16;;;;;;;7.97;4.28;;;;;;;-142.75;100.00;77978.00;5023480;28;20041;-65
2023/05/31 03:03:42;;;;;;;6.93;3.78;;;;;;;-142.75;100.00;77987.84;5025374;28;20036;-66
2023/05/31 03:06:07;;;;;;;9.13;4.38;;;;;;;-142.75;100.00;77979.97;5024049;28;20040;-66
2023/05/31 03:08:32;;;;;;;8.02;3.92;;;;;;;-142.75;100.00;77985.88;5025079;28;20040;-65
2023/05/31 03:10:58;;;;;;;8.02;4.07;;;;;;;-142.75;100.00;77981.94;5024774;28;20503;-65
2023/05/31 03:13:23;;;;;;;10.93;4.18;;;;;;;-142.75;100.00;77974.06;5025273;28;20029;-66
2023/05/31 03:15:48;;;;;;;9.27;3.50;;;;;;;-142.75;100.00;77964.22;5024944;28;20083;-65
2023/05/31 03:18:14;;;;;;;8.32;3.90;;;;;;;-142.75;100.00;77964.22;5024974;28;20108;-66
2023/05/31 03:20:39;;;;;;;7.90;3.90;;;;;;;-142.75;100.00;77968.16;5024645;28;20040;-67
2023/05/31 03:23:06;;;;;;;10.60;4.32;;;;;;;-142.75;100.00;77972.09;5024843;28;20108;-65
2023/05/31 03:25:32;;;;;;;7.60;4.05;;;;;;;-142.75;100.00;77981.94;5024625;28;20108;-66
2023/05/31 03:27:57;;;;;;;7.38;3.80;;;;;;;-142.75;100.00;77972.09;5025083;28;20715;-64
2023/05/31 03:30:22;;;;;;;8.65;4.05;;;;;;;-142.75;100.00;77979.97;5024826;28;20052;-66
2023/05/31 03:32:48;;;;;;;9.32;3.60;;;;;;;-142.75;100.00;77991.78;5024756;28;20029;-66
2023/05/31 03:35:13;;;;;;;7.28;4.13;;;;;;;-142.75;100.00;77983.91;5024622;28;20096;-66
2023/05/31 03:37:38;;;;;;;6.32;3.38;;;;;;;-142.75;100.00;77981.94;5024717;28;20387;-66
2023/05/31 03:40:04;;;;;;;8.05;3.78;;;;;;;-142.75;100.00;77983.91;5024237;28;20029;-68
2023/05/31 03:42:31;;;;;;;7.93;3.63;;;;;;;-142.75;100.00;77987.84;5024781;28;20032;-66
2023/05/31 03:44:56;;;;;;;8.15;4.60;;;;;;;-142.75;100.00;77997.69;5024650;28;20079;-65
2023/05/31 03:47:22;;;;;;;9.30;3.78;;;;;;;-142.75;100.00;77985.88;5024724;28;20496;-66
2023/05/31 03:49:47;;;;;;;6.38;3.78;;;;;;;-142.75;100.00;77983.91;5024351;28;20109;-65
2023/05/31 03:52:12;;;;;;;8.75;4.28;;;;;;;-142.75;100.00;77979.97;5024651;28;20037;-66
2023/05/31 03:54:38;;;;;;;8.18;4.47;;;;;;;-142.75;100.00;77991.78;5023256;28;20163;-66
2023/05/31 03:57:04;;;;;;;8.07;4.57;;;;;;;-142.75;100.00;77981.94;5024714;28;20075;-66
2023/05/31 03:59:30;;;;;;;9.13;4.55;;;;;;;-142.75;100.00;77976.03;5023508;28;20565;-65
2023/05/31 04:01:55;;;;;;;9.38;4.63;;;;;;;-142.75;100.00;77974.06;5026244;28;20033;-64
2023/05/31 04:04:20;;;;;;;8.77;5.07;;;;;;;-142.75;100.00;77989.81;5045391;28;20104;-66
2023/05/31 04:06:46;;;;;;;8.70;3.88;;;;;;;-142.75;100.00;77983.91;5039799;28;20034;-66
2023/05/31 04:09:11;;;;;;;9.65;4.35;;;;;;;-142.75;100.00;77978.00;5027703;28;20032;-66
2023/05/31 04:11:37;;;;;;;11.52;4.38;;;;;;;-142.75;100.00;77991.78;5027591;28;20400;-65
2023/05/31 04:14:02;;;;;;;10.32;4.65;;;;;;;-142.75;100.00;77970.13;5027808;28;20083;-66
2023/05/31 04:16:28;;;;;;;9.98;4.63;;;;;;;-142.75;100.00;77964.22;5027738;28;20025;-65
2023/05/31 04:18:53;;;;;;;8.82;4.00;;;;;;;-142.75;100.00;77960.28;5027840;28;20048;-65
2023/05/31 04:21:18;;;;;;;7.82;4.47;;;;;;;-142.75;100.00;77948.47;5028850;28;20029;-65
2023/05/31 04:23:44;;;;;;;11.25;4.15;;;;;;;-142.75;100.00;77948.47;5047325;28;20595;-66
2023/05/31 04:26:16;;;;;;;9.25;4.05;;;;;;;-142.75;100.00;77946.50;5047653;28;20120;-66
2023/05/31 04:28:42;;;;;;;7.63;4.18;;;;;;;-142.75;100.00;77930.75;5047819;28;20386;-66
2023/05/31 04:31:07;;;;;;;7.95;3.85;;;;;;;-142.75;100.00;77924.84;5047045;28;20686;-65
2023/05/31 04:33:35;;;;;;;11.70;4.60;;;;;;;-142.75;100.00;77920.91;5047379;28;20024;-66
2023/05/31 04:36:00;;;;;;;9.13;4.40;;;;;;;-142.75;100.00;77913.03;5047120;28;20025;-65
2023/05/31 04:38:30;;;;;;;9.23;4.72;;;;;;;-142.75;100.00;77913.03;5027969;28;20143;-66
2023/05/31 04:40:57;;;;;;;11.73;5.13;;;;;;;-142.75;100.00;77897.25;5027140;28;20376;-66
2023/05/31 04:43:23;;;;;;;10.85;4.63;;;;;;;-142.75;100.00;77885.44;5042791;28;20615;-65
2023/05/31 04:45:49;;;;;;;9.52;4.75;;;;;;;-142.75;100.00;77885.44;5027005;28;20026;-66
2023/05/31 04:48:15;;;;;;;9.02;4.50;;;;;;;-142.75;100.00;77873.63;5027156;28;20036;-67
2023/05/31 04:50:40;;;;;;;12.43;4.57;;;;;;;-142.75;100.00;77867.72;5026936;28;20056;-65
2023/05/31 04:53:06;;;;;;;9.18;4.80;;;;;;;-142.75;100.00;77861.81;5026784;28;20057;-66
2023/05/31 04:55:31;;;;;;;15.90;5.30;;;;;;;-142.75;100.00;77865.75;5026724;28;20083;-65
2023/05/31 04:57:56;;;;;;;11.52;5.57;;;;;;;-142.75;100.00;77850.00;5027342;28;20091;-66
2023/05/31 05:00:22;;;;;;;11.38;5.50;;;;;;;-142.75;100.00;77830.31;5025616;28;20022;-66
2023/05/31 05:02:47;;;;;;;9.48;4.72;;;;;;;-142.75;100.00;77818.50;5025997;28;20116;-66
2023/05/31 05:05:13;;;;;;;11.07;4.68;;;;;;;-142.75;100.00;77828.34;5027692;28;20033;-65
2023/05/31 05:07:38;;;;;;;12.10;5.43;;;;;;;-142.75;100.00;77816.53;5026805;28;20063;-67
2023/05/31 05:10:04;;;;;;;9.18;4.85;;;;;;;-142.75;100.00;77798.81;5027164;28;20030;-66
2023/05/31 05:12:29;;;;;;;11.15;5.25;;;;;;;-142.75;100.00;77798.81;5041836;28;20087;-67
2023/05/31 05:14:55;;;;;;;10.43;4.95;;;;;;;-142.75;100.00;77798.81;5026218;28;20083;-67
2023/05/31 05:17:20;;;;;;;9.90;5.30;;;;;;;-142.75;100.00;77779.13;5026200;28;20021;-66
2023/05/31 05:19:45;;;;;;;9.68;4.85;;;;;;;-142.75;100.00;77771.25;5026050;28;20349;-67
2023/05/31 05:22:11;;;;;;;13.18;5.75;;;;;;;-142.75;100.00;77773.22;5026457;28;20486;-65
2023/05/31 05:24:36;;;;;;;10.73;5.15;;;;;;;-142.75;100.00;77745.66;5026512;28;20387;-66
2023/05/31 05:27:02;;;;;;;9.60;5.50;;;;;;;-142.75;100.00;77745.66;5026327;28;20033;-66
2023/05/31 05:29:27;;;;;;;9.55;4.88;;;;;;;-142.75;100.00;77749.59;5026506;28;20040;-64
2023/05/31 05:31:53;;;;;;;11.48;5.30;;;;;;;-142.75;100.00;77733.84;5026334;28;20029;-66
2023/05/31 05:34:19;;;;;;;9.80;5.30;;;;;;;-142.75;100.00;77723.97;5026487;28;20026;-66
2023/05/31 05:36:45;;;;;;;13.18;5.15;;;;;;;-142.75;100.00;77722.00;5025828;28;20510;-67
2023/05/31 05:39:11;;;;;;;12.18;5.43;;;;;;;-142.75;100.00;77745.66;5026188;28;20108;-67
2023/05/31 05:41:36;;;;;;;9.60;5.60;;;;;;;-142.75;100.00;77725.97;5025818;28;20029;-66
2023/05/31 05:44:02;;;;;;;11.30;5.15;;;;;;;-142.75;100.00;77729.88;5026149;28;20029;-66
2023/05/31 05:46:27;;;;;;;11.80;5.82;;;;;;;-142.75;100.00;77716.09;5025731;28;20479;-66
2023/05/31 05:48:53;;;;;;;11.35;5.35;;;;;;;-142.75;100.00;77700.34;5034197;28;20025;-67
2023/05/31 05:51:19;;;;;;;11.07;5.38;;;;;;;-142.75;100.00;77694.44;5023330;28;20059;-63
2023/05/31 05:53:44;;;;;;;12.20;6.35;;;;;;;-142.75;100.00;77704.28;5025832;28;20095;-67
2023/05/31 05:56:11;;;;;;;11.68;5.68;;;;;;;-142.75;100.00;77702.31;5026712;28;20033;-66
2023/05/31 05:58:36;;;;;;;11.70;5.70;;;;;;;-142.75;100.00;77716.09;5028569;28;20544;-67
2023/05/31 06:01:02;;;;;;;11.00;5.15;;;;;;;-142.75;100.00;77708.22;5026832;28;20033;-67
2023/05/31 06:03:30;;;;;;;11.73;5.28;;;;;;;-142.75;100.00;77684.59;5026214;28;20033;-65
2023/05/31 06:05:55;;;;;;;13.48;5.82;;;;;;;-142.75;100.00;77680.66;5027292;28;20029;-67
2023/05/31 06:08:21;;;;;;;12.90;5.15;;;;;;;-142.75;100.00;77631.44;5027666;28;20048;-66
2023/05/31 06:10:46;;;;;;;11.18;6.05;;;;;;;-142.75;100.00;77639.31;5026504;28;20079;-67
2023/05/31 06:13:11;;;;;;;12.23;5.43;;;;;;;-142.75;100.00;77619.63;5025161;28;20098;-67
2023/05/31 06:15:37;;;;;;;12.27;5.40;;;;;;;-142.75;100.00;77601.91;5030936;28;20025;-67
2023/05/31 06:18:02;;;;;;;14.63;6.43;;;;;;;-142.75;100.00;77586.16;5026619;28;20060;-67
2023/05/31 06:20:27;;;;;;;16.92;6.03;;;;;;;-142.75;100.00;77574.34;5024991;28;20091;-66
2023/05/31 06:22:53;;;;;;;10.90;5.18;;;;;;;-142.75;100.00;77584.19;5022142;28;20104;-66
2023/05/31 06:25:20;;;;;;;11.85;5.38;;;;;;;-142.75;100.00;77546.78;5026912;28;20035;-67
2023/05/31 06:27:46;;;;;;;9.75;5.55;;;;;;;-142.75;100.00;77540.88;5027451;28;20021;-66
2023/05/31 06:30:13;;;;;;;11.85;5.57;;;;;;;-142.75;100.00;77534.97;5024410;28;20056;-66
2023/05/31 06:32:38;;;;;;;14.13;6.22;;;;;;;-142.75;100.00;77523.16;5023356;28;20037;-66
2023/05/31 06:35:04;;;;;;;10.18;4.95;;;;;;;-142.75;100.00;77525.13;5023772;28;20047;-66
2023/05/31 06:37:31;;;;;;;13.57;6.20;;;;;;;-142.75;100.00;77489.69;5024383;28;20056;-66
2023/05/31 06:39:56;;;;;;;9.75;5.18;;;;;;;-142.75;100.00;77487.72;5025089;28;20554;-66
2023/05/31 06:42:22;;;;;;;9.80;4.60;;;;;;;-142.75;100.00;77471.97;5024945;28;20029;-66
2023/05/31 06:44:47;;;;;;;15.77;5.90;;;;;;;-142.75;100.00;77460.13;5025221;28;20109;-68
2023/05/31 06:47:13;;;;;;;10.18;5.75;;;;;;;-142.75;100.00;77468.03;5024873;28;20449;-68
2023/05/31 06:49:38;;;;;;;13.98;5.50;;;;;;;-142.75;100.00;77462.13;5025029;28;20522;-67
2023/05/31 06:52:04;;;;;;;10.82;5.93;;;;;;;-142.75;100.00;77479.84;5039205;28;20413;-67
2023/05/31 06:54:30;;;;;;;10.80;5.32;;;;;;;-142.75;100.00;77444.38;5021872;28;20029;-67
2023/05/31 06:56:56;;;;;;;15.32;6.28;;;;;;;-142.75;100.00;77420.75;5025956;28;20116;-66
2023/05/31 06:59:21;;;;;;;15.57;5.88;;;;;;;-142.75;100.00;77410.91;5023415;28;20117;-67
2023/05/31 07:01:46;;;;;;;14.07;6.38;;;;;;;-142.75;100.00;77399.09;5023327;28;20128;-68
2023/05/31 07:04:12;;;;;;;13.18;6.53;;;;;;;-142.75;100.00;77389.25;5024795;28;20402;-69
2023/05/31 07:06:37;;;;;;;12.35;5.50;;;;;;;-142.75;100.00;77349.88;5027696;28;21874;-68
2023/05/31 07:09:04;;;;;;;10.77;5.15;;;;;;;-142.75;100.00;77347.91;5022885;28;20064;-68
2023/05/31 07:11:29;;;;;;;16.67;5.78;;;;;;;-142.75;100.00;77349.88;5022630;28;20025;-68
2023/05/31 07:13:56;;;;;;;11.98;6.18;;;;;;;-142.75;100.00;77334.13;5026708;28;20479;-68
2023/05/31 07:16:21;;;;;;;11.30;5.20;;;;;;;-142.75;100.00;77349.88;5022656;28;20028;-69
2023/05/31 07:18:47;;;;;;;14.75;5.68;;;;;;;-142.75;100.00;77310.50;5038757;28;20017;-69
2023/05/31 07:21:12;;;;;;;11.13;5.90;;;;;;;-142.75;100.00;77302.63;5033762;28;20449;-69
2023/05/31 07:23:38;;;;;;;13.65;5.88;;;;;;;-142.75;100.00;77273.09;5033764;28;20040;-68
2023/05/31 07:26:03;;;;;;;13.77;6.50;;;;;;;-142.75;100.00;77247.50;5024478;28;20112;-68
2023/05/31 07:28:28;;;;;;;10.63;5.45;;;;;;;-142.75;100.00;77231.75;5027273;28;20108;-68
2023/05/31 07:30:54;;;;;;;9.25;5.72;;;;;;;-142.75;100.00;77217.97;5024519;28;20471;-68
2023/05/31 07:33:19;;;;;;;11.63;5.35;;;;;;;-142.75;100.00;77216.00;5024643;28;20664;-69
2023/05/31 07:35:45;;;;;;;9.68;5.57;;;;;;;-142.75;100.00;77176.63;5043484;28;20095;-68
2023/05/31 07:38:10;;;;;;;11.75;5.35;;;;;;;-142.75;100.00;77190.41;5046640;28;20743;-68
2023/05/31 07:40:36;;;;;;;9.27;5.68;;;;;;;-142.75;100.00;77180.56;5028829;28;20021;-68
2023/05/31 07:43:01;;;;;;;12.45;6.20;;;;;;;-142.75;100.00;77156.94;5055955;28;20568;-69
2023/05/31 07:45:26;;;;;;;10.23;5.32;;;;;;;-142.75;100.00;77135.28;5044791;28;20033;-68
2023/05/31 07:47:52;;;;;;;8.80;5.10;;;;;;;-142.75;100.00;77156.94;5028224;28;20059;-68
2023/05/31 07:50:18;;;;;;;9.02;5.32;;;;;;;-142.75;100.00;77105.75;5027925;28;20025;-68
2023/05/31 07:52:46;;;;;;;9.75;5.43;;;;;;;-142.75;100.00;77091.97;5027964;28;20026;-68
2023/05/31 07:55:12;;;;;;;12.70;5.63;;;;;;;-142.75;100.00;77088.03;5033576;28;20155;-69
2023/05/31 07:57:38;;;;;;;8.52;5.20;;;;;;;-142.75;100.00;77107.72;5038973;28;20021;-69
2023/05/31 08:00:04;;;;;;;10.68;5.15;;;;;;;-142.75;100.00;77076.22;5037622;28;20028;-68
2023/05/31 08:02:30;;;;;;;12.32;5.05;;;;;;;-142.75;100.00;77086.06;5027948;28;20504;-68
2023/05/31 08:04:59;;;;;;;13.10;5.72;;;;;;;-142.75;100.00;77054.56;5028444;28;20044;-69
2023/05/31 08:07:25;;;;;;;14.02;4.95;;;;;;;-142.75;100.00;77034.88;5027994;28;20030;-69
2023/05/31 08:09:51;;;;;;;10.73;5.65;;;;;;;-142.75;100.00;77015.19;5027700;28;20580;-68
2023/05/31 08:12:16;;;;;;;10.75;5.45;;;;;;;-142.75;100.00;77003.38;5027757;28;20101;-69
2023/05/31 08:14:41;;;;;;;10.57;4.80;;;;;;;-142.75;100.00;76985.66;5033170;28;20033;-69
2023/05/31 08:17:06;;;;;;;10.77;5.22;;;;;;;-142.75;100.00;76956.13;5044718;28;20231;-69
2023/05/31 08:19:32;;;;;;;9.07;4.90;;;;;;;-142.75;100.00;76985.66;5027611;28;20123;-68
2023/05/31 08:21:58;;;;;;;12.18;5.53;;;;;;;-142.75;100.00;76981.72;5031773;28;20044;-68
2023/05/31 08:24:23;;;;;;;16.67;5.93;;;;;;;-142.75;100.00;76983.69;5037592;28;20044;-69
2023/05/31 08:26:50;;;;;;;11.52;5.10;;;;;;;-142.75;100.00;76960.06;5028954;28;20025;-69
2023/05/31 08:29:15;;;;;;;12.68;5.30;;;;;;;-142.75;100.00;76934.47;5029541;28;20025;-68
2023/05/31 08:31:41;;;;;;;9.30;5.35;;;;;;;-142.75;100.00;76902.97;5028589;28;20548;-69
2023/05/31 08:34:06;;;;;;;13.63;5.13;;;;;;;-142.75;100.00;76885.25;5041935;28;20033;-69
2023/05/31 08:36:32;;;;;;;11.18;5.68;;;;;;;-142.75;100.00;76881.31;5038943;28;20748;-68
2023/05/31 08:38:58;;;;;;;9.32;4.75;;;;;;;-142.75;100.00;76901.00;5025245;28;20025;-68
2023/05/31 08:41:25;;;;;;;14.48;5.40;;;;;;;-142.75;100.00;76916.75;5038804;28;20028;-69
2023/05/31 08:43:50;;;;;;;13.25;5.25;;;;;;;-142.75;100.00;76863.59;5045377;28;20021;-69
2023/05/31 08:46:17;;;;;;;7.97;4.90;;;;;;;-142.75;100.00;76859.66;5035630;28;20026;-70
2023/05/31 08:49:02;;;;;;;9.63;4.63;;;;;;;-142.75;100.00;76822.25;5026564;28;20050;-68
2023/05/31 08:51:27;;;;;;;13.13;5.57;;;;;;;-142.75;100.00;76824.22;5026643;28;20376;-68
2023/05/31 08:53:56;;;;;;;10.15;4.68;;;;;;;-142.75;100.00;76839.97;5027309;28;20128;-68
2023/05/31 08:56:23;;;;;;;13.95;4.75;;;;;;;-142.75;100.00;76802.56;5042545;28;20017;-69
2023/05/31 08:58:50;;;;;;;12.13;5.13;;;;;;;-142.75;100.00;76786.84;5028176;28;20096;-67
2023/05/31 09:01:17;;;;;;;11.70;5.18;;;;;;;-142.75;100.00;76784.88;5042254;28;20025;-67
2023/05/31 09:03:44;;;;;;;11.10;5.22;;;;;;;-142.75;100.00;76782.91;5025264;28;20032;-67
2023/05/31 09:06:09;;;;;;;10.07;4.95;;;;;;;-142.75;100.00;76751.41;5026422;28;20112;-68
2023/05/31 09:08:34;;;;;;;12.48;4.90;;;;;;;-142.75;100.00;76745.50;5042155;28;20113;-67
2023/05/31 09:11:01;;;;;;;9.98;4.93;;;;;;;-142.75;100.00;76743.53;5026455;28;20029;-67
2023/05/31 09:13:27;;;;;;;9.55;5.10;;;;;;;-142.75;100.00;76739.59;5041639;28;20100;-67
2023/05/31 09:15:53;;;;;;;9.10;4.43;;;;;;;-142.75;100.00;76735.66;5025000;28;20195;-67
2023/05/31 09:18:20;;;;;;;7.60;4.05;;;;;;;-142.75;100.00;76690.38;5035587;28;20028;-65
2023/05/31 09:20:52;;;;;;;12.15;5.28;;;;;;;-142.75;100.00;76678.56;5044748;28;20033;-65
2023/05/31 09:23:17;;;;;;;12.23;4.43;;;;;;;-142.75;100.00;76649.03;5027797;28;20171;-65
2023/05/31 09:25:52;;;;;;;12.30;5.53;;;;;;;-142.75;100.00;76666.75;5024444;28;20033;-66
2023/05/31 09:28:19;;;;;;;11.45;4.95;;;;;;;-142.75;100.00;76641.16;5025828;28;20053;-66
2023/05/31 09:30:45;;;;;;;10.07;5.13;;;;;;;-142.75;100.00;76666.75;5041842;28;20037;-65
2023/05/31 09:33:13;;;;;;;7.55;4.55;;;;;;;-142.75;100.00;76635.25;5026276;28;20040;-66
2023/05/31 09:35:55;;;;;;;13.20;4.40;;;;;;;-142.75;97.16;76686.44;5041630;28;20056;-65
2023/05/31 09:38:31;;;;;;;10.27;4.50;;;;;;;-142.75;98.64;76654.94;5043813;28;20070;-66
2023/05/31 09:40:56;;;;;;;11.57;5.32;;;;;;;-142.75;100.00;76641.16;5046039;28;20039;-66
2023/05/31 09:43:22;;;;;;;10.38;4.28;;;;;;;-142.75;100.00;76584.06;5061280;28;20028;-66
2023/05/31 09:45:47;;;;;;;9.73;4.75;;;;;;;-142.75;96.61;76631.31;5045592;28;20049;-66
2023/05/31 09:48:13;;;;;;;7.10;4.32;;;;;;;-142.75;100.00;76609.66;5032405;28;20723;-67
2023/05/31 09:50:38;;;;;;;7.88;4.72;;;;;;;-142.75;100.00;76597.84;5041163;28;20037;-67
2023/05/31 09:53:04;;;;;;;14.98;4.60;;;;;;;-142.75;100.00;76554.53;5024538;28;20112;-66
2023/05/31 09:55:42;;;;;;;8.88;4.47;;;;;;;-142.75;100.00;76538.78;5025274;28;20029;-65
2023/05/31 09:58:07;;;;;;;11.23;4.65;;;;;;;-142.75;96.02;76586.03;5024173;28;20029;-66
2023/05/31 10:00:33;;;;;;;10.75;4.65;;;;;;;-142.75;100.00;76538.78;5024221;28;20041;-66
2023/05/31 10:02:59;;;;;;;12.18;4.50;;;;;;;-142.75;100.00;76507.31;5025114;28;20477;-66
2023/05/31 10:05:25;;;;;;;8.70;4.75;;;;;;;-142.75;97.44;76491.56;5025141;28;20029;-66
2023/05/31 10:07:52;;;;;;;11.80;4.75;;;;;;;-142.75;97.54;76491.56;5024730;28;20064;-66
2023/05/31 10:10:20;;;;;;;9.10;4.85;;;;;;;-142.75;99.32;76464.00;5024741;28;20064;-65
2023/05/31 10:12:57;;;;;;;8.30;5.60;;;;;;;-142.75;93.57;76467.94;5025150;28;20060;-67
2023/05/31 10:15:24;;;;;;;13.00;4.28;;;;;;;-142.75;97.19;76440.38;5025420;28;20032;-66
2023/05/31 10:17:58;;;;;;;8.50;4.38;;;;;;;-142.75;94.85;76430.53;5025381;28;20044;-67
2023/05/31 10:20:27;;;;;;;11.95;4.80;;;;;;;-142.75;95.57;76467.94;5025480;28;20107;-66
2023/05/31 10:22:57;;;;;;;11.73;4.97;;;;;;;-142.75;98.51;76458.09;5025488;28;20024;-66
2023/05/31 10:25:34;;;;;;;12.50;5.28;;;;;;;-142.75;91.81;76444.31;5025342;28;20036;-66
2023/05/31 10:28:07;;;;;;;10.02;5.07;;;;;;;-142.75;94.70;76418.72;5024259;28;20494;-65
2023/05/31 10:30:35;;;;;;;10.13;4.72;;;;;;;-142.75;95.75;76424.63;5025574;28;20037;-64
2023/05/31 10:33:07;;;;;;;14.00;4.55;;;;;;;-142.75;98.79;76420.69;5025356;28;20064;-65
2023/05/31 10:35:33;;;;;;;10.70;5.15;;;;;;;-142.75;100.00;76428.56;5025376;28;20021;-65
2023/05/31 10:38:00;;;;;;;8.18;4.65;;;;;;;-142.75;96.63;76410.84;5025036;28;20040;-65
2023/05/31 10:40:42;;;;;;;8.43;4.88;;;;;;;-142.75;96.21;76381.31;5025245;28;20620;-65
2023/05/31 10:43:18;;;;;;;11.10;5.53;;;;;;;-142.75;93.44;76402.97;5025163;28;20213;-66
2023/05/31 10:46:02;;;;;;;;;;;;;;;-142.75;97.34;76379.34;5025724;28;20029;-66
2023/05/31 10:48:43;;;;;;;9.98;5.40;;;;;;;-142.75;96.86;76389.19;5025260;28;19919;-63
2023/05/31 10:51:10;;;;;;;8.63;4.43;;;;;;;-142.75;96.99;76365.56;5024989;28;20036;-65
2023/05/31 10:53:37;;;;;;;12.85;5.10;;;;;;;-142.75;97.55;76351.81;5025540;28;20441;-65
2023/05/31 10:56:13;;;;;;;12.35;5.05;;;;;;;-142.75;94.39;76338.03;5025676;28;20022;-66
2023/05/31 10:58:41;;;;;;;8.93;5.18;;;;;;;-142.75;92.47;76345.91;5025767;28;20025;-66
2023/05/31 11:01:10;;;;;;;7.88;4.53;;;;;;;-142.75;94.48;76314.41;5025993;28;20025;-66
2023/05/31 11:03:42;;;;;;;10.63;5.40;;;;;;;-142.75;94.25;76267.16;5025513;28;20418;-66
2023/05/31 11:06:11;;;;;;;8.98;4.90;;;;;;;-142.75;89.72;76235.66;5025133;28;20596;-66